Elmora, Pennsylvania
Current Conditions -  °F | °C
As of 9:35 AM on Monday 26 Jan 2015 (Local Time) from KIDI Reporting Station
Haze Haze  
Wind Chill: -11°   Ceiling: 3300
Heat Index: -5°   Visibility: 1.5mi
Dew Point: -7°   Wind: 10mph
Humidity: 86%   Direction: 100°E
Pressure: 29.75"   Gusts: NA
Location:  40.6°N, 78.75°W
Report Text: KIDI 261435Z AUTO 10009KT 1 1/2SM BR FEW027 BKN033 M05/M07 A2975 RMK A01
Loading
Personal Weather Stations






























Interactive Weather Map New forecast layout! Learn more

10-Day Weather Forecast

Advertisements
Track Severe Weather on mobile